Dorena, Oregon
Current Conditions -  °F | °C
As of 1:54 AM on Monday 22 Dec 2014 (Local Time) from KEUG Reporting Station
Light Rain Light Rain  
Wind Chill: 51°   Ceiling: 500
Heat Index: 51°   Visibility: 3mi
Dew Point: 50°   Wind: 3mph
Humidity: 96%   Direction: 50°NE
Pressure: 30.24"   Gusts: NA
Location:  43.72°N, 122.86°W
Report Text: KEUG 220954Z AUTO 05003KT 3SM -RA BR OVC005 11/10 A3024 RMK AO2 VIS 1 1/2 RNW 34 RAB28 SLP240 P0002 T01060100 $
Loading
Personal Weather Stations






























Interactive Weather Map New forecast layout! Learn more

10-Day Weather Forecast

Advertisements
Track Severe Weather on mobile